sensor_id;sensor_type;location;lat;lon;timestamp;pressure;altitude;pressure_sealevel;temperature;humidity
19210;BME280;9738;51.654;14.238;2023-04-02T00:01:44;99841.50;;;4.60;100.00
19210;BME280;9738;51.654;14.238;2023-04-02T00:04:16;99840.91;;;4.57;100.00
19210;BME280;9738;51.654;14.238;2023-04-02T00:06:49;99852.72;;;4.53;100.00
19210;BME280;9738;51.654;14.238;2023-04-02T00:09:39;99854.41;;;4.54;100.00
19210;BME280;9738;51.654;14.238;2023-04-02T00:12:14;99865.69;;;4.56;100.00
19210;BME280;9738;51.654;14.238;2023-04-02T00:14:46;99874.31;;;4.58;100.00
19210;BME280;9738;51.654;14.238;2023-04-02T00:17:13;99872.53;;;4.58;100.00
19210;BME280;9738;51.654;14.238;2023-04-02T00:22:18;99889.41;;;4.46;100.00
19210;BME280;9738;51.654;14.238;2023-04-02T00:24:45;99883.00;;;4.49;100.00
19210;BME280;9738;51.654;14.238;2023-04-02T00:27:13;99886.88;;;4.45;100.00
19210;BME280;9738;51.654;14.238;2023-04-02T00:29:50;99891.44;;;4.43;100.00
19210;BME280;9738;51.654;14.238;2023-04-02T00:32:29;99893.13;;;4.44;100.00
19210;BME280;9738;51.654;14.238;2023-04-02T00:34:57;99891.31;;;4.44;100.00
19210;BME280;9738;51.654;14.238;2023-04-02T00:37:26;99900.81;;;4.47;100.00
19210;BME280;9738;51.654;14.238;2023-04-02T00:40:00;99905.28;;;4.46;100.00
19210;BME280;9738;51.654;14.238;2023-04-02T00:42:33;99904.44;;;4.46;100.00
19210;BME280;9738;51.654;14.238;2023-04-02T00:45:00;99909.72;;;4.46;100.00
19210;BME280;9738;51.654;14.238;2023-04-02T00:47:33;99907.53;;;4.51;100.00
19210;BME280;9738;51.654;14.238;2023-04-02T00:50:05;99911.41;;;4.47;100.00
19210;BME280;9738;51.654;14.238;2023-04-02T00:52:34;99910.94;;;4.42;100.00
19210;BME280;9738;51.654;14.238;2023-04-02T00:55:07;99918.72;;;4.43;100.00
19210;BME280;9738;51.654;14.238;2023-04-02T00:57:41;99926.09;;;4.40;100.00
19210;BME280;9738;51.654;14.238;2023-04-02T01:00:40;99928.00;;;4.38;100.00
19210;BME280;9738;51.654;14.238;2023-04-02T01:05:47;99936.69;;;4.28;100.00
19210;BME280;9738;51.654;14.238;2023-04-02T01:08:26;99940.78;;;4.21;100.00
19210;BME280;9738;51.654;14.238;2023-04-02T01:14:19;99957.00;;;4.05;100.00
19210;BME280;9738;51.654;14.238;2023-04-02T01:16:55;99953.53;;;4.05;100.00
19210;BME280;9738;51.654;14.238;2023-04-02T01:22:47;99964.94;;;4.05;100.00
19210;BME280;9738;51.654;14.238;2023-04-02T01:25:23;99967.84;;;4.02;100.00
19210;BME280;9738;51.654;14.238;2023-04-02T01:27:58;99970.84;;;3.98;100.00
19210;BME280;9738;51.654;14.238;2023-04-02T01:30:26;99980.91;;;3.93;100.00
19210;BME280;9738;51.654;14.238;2023-04-02T01:32:52;99986.94;;;3.95;100.00
19210;BME280;9738;51.654;14.238;2023-04-02T01:35:20;99987.88;;;3.94;100.00
19210;BME280;9738;51.654;14.238;2023-04-02T01:38:15;99991.47;;;3.93;100.00
19210;BME280;9738;51.654;14.238;2023-04-02T01:41:13;99998.91;;;3.88;100.00
19210;BME280;9738;51.654;14.238;2023-04-02T01:43:58;99998.22;;;3.86;100.00
19210;BME280;9738;51.654;14.238;2023-04-02T01:46:32;100005.28;;;3.85;100.00
19210;BME280;9738;51.654;14.238;2023-04-02T01:49:01;100006.84;;;3.88;100.00
19210;BME280;9738;51.654;14.238;2023-04-02T01:51:30;100013.72;;;3.90;100.00
19210;BME280;9738;51.654;14.238;2023-04-02T01:53:58;100011.78;;;3.92;100.00
19210;BME280;9738;51.654;14.238;2023-04-02T01:56:26;100019.34;;;3.86;100.00
19210;BME280;9738;51.654;14.238;2023-04-02T01:58:53;100028.69;;;3.78;100.00
19210;BME280;9738;51.654;14.238;2023-04-02T02:01:22;100026.31;;;3.75;100.00
19210;BME280;9738;51.654;14.238;2023-04-02T02:03:51;100036.25;;;3.72;100.00
19210;BME280;9738;51.654;14.238;2023-04-02T02:06:18;100037.94;;;3.73;100.00
19210;BME280;9738;51.654;14.238;2023-04-02T02:08:53;100037.09;;;3.72;100.00
19210;BME280;9738;51.654;14.238;2023-04-02T02:11:26;100040.00;;;3.69;100.00
19210;BME280;9738;51.654;14.238;2023-04-02T02:14:03;100052.44;;;3.67;100.00
19210;BME280;9738;51.654;14.238;2023-04-02T02:16:31;100053.66;;;3.63;100.00
19210;BME280;9738;51.654;14.238;2023-04-02T02:19:17;100057.47;;;3.59;100.00
19210;BME280;9738;51.654;14.238;2023-04-02T02:22:22;100062.50;;;3.51;100.00
19210;BME280;9738;51.654;14.238;2023-04-02T02:24:49;100062.13;;;3.44;100.00
19210;BME280;9738;51.654;14.238;2023-04-02T02:29:48;100084.66;;;3.37;100.00
19210;BME280;9738;51.654;14.238;2023-04-02T02:32:19;100083.56;;;3.40;100.00
19210;BME280;9738;51.654;14.238;2023-04-02T02:35:11;100088.97;;;3.38;100.00
19210;BME280;9738;51.654;14.238;2023-04-02T02:37:45;100099.53;;;3.38;100.00
19210;BME280;9738;51.654;14.238;2023-04-02T02:40:17;100094.34;;;3.37;100.00
19210;BME280;9738;51.654;14.238;2023-04-02T02:42:50;100104.91;;;3.37;100.00
19210;BME280;9738;51.654;14.238;2023-04-02T02:45:23;100104.19;;;3.35;100.00
19210;BME280;9738;51.654;14.238;2023-04-02T02:47:52;100114.03;;;3.33;100.00
19210;BME280;9738;51.654;14.238;2023-04-02T02:50:22;100119.06;;;3.36;100.00
19210;BME280;9738;51.654;14.238;2023-04-02T02:52:52;100118.22;;;3.35;100.00
19210;BME280;9738;51.654;14.238;2023-04-02T02:55:37;100119.91;;;3.36;100.00
19210;BME280;9738;51.654;14.238;2023-04-02T02:58:21;100135.16;;;3.33;100.00
19210;BME280;9738;51.654;14.238;2023-04-02T03:00:52;100139.19;;;3.25;100.00
19210;BME280;9738;51.654;14.238;2023-04-02T03:03:21;100140.34;;;3.21;100.00
19210;BME280;9738;51.654;14.238;2023-04-02T03:05:51;100137.97;;;3.18;100.00
19210;BME280;9738;51.654;14.238;2023-04-02T03:08:25;100146.53;;;3.09;100.00
19210;BME280;9738;51.654;14.238;2023-04-02T03:11:04;100158.47;;;3.02;100.00
19210;BME280;9738;51.654;14.238;2023-04-02T03:13:34;100161.34;;;2.99;100.00
19210;BME280;9738;51.654;14.238;2023-04-02T03:16:06;100165.25;;;2.93;100.00
19210;BME280;9738;51.654;14.238;2023-04-02T03:24:03;100183.31;;;2.87;100.00
19210;BME280;9738;51.654;14.238;2023-04-02T03:29:19;100186.47;;;2.79;100.00
19210;BME280;9738;51.654;14.238;2023-04-02T03:31:47;100194.63;;;2.76;100.00
19210;BME280;9738;51.654;14.238;2023-04-02T03:34:25;100194.94;;;2.71;100.00
19210;BME280;9738;51.654;14.238;2023-04-02T03:37:14;100197.78;;;2.68;100.00
19210;BME280;9738;51.654;14.238;2023-04-02T03:39:53;100198.53;;;2.70;100.00
19210;BME280;9738;51.654;14.238;2023-04-02T03:42:24;100217.81;;;2.71;100.00
19210;BME280;9738;51.654;14.238;2023-04-02T03:45:06;100220.75;;;2.66;100.00
19210;BME280;9738;51.654;14.238;2023-04-02T03:47:44;100225.19;;;2.66;100.00
19210;BME280;9738;51.654;14.238;2023-04-02T03:50:32;100227.94;;;2.64;100.00
19210;BME280;9738;51.654;14.238;2023-04-02T03:53:01;100229.63;;;2.65;100.00
19210;BME280;9738;51.654;14.238;2023-04-02T03:55:31;100240.28;;;2.64;100.00
19210;BME280;9738;51.654;14.238;2023-04-02T03:58:10;100245.13;;;2.57;100.00
19210;BME280;9738;51.654;14.238;2023-04-02T04:00:54;100253.91;;;2.58;100.00
19210;BME280;9738;51.654;14.238;2023-04-02T04:03:41;100247.25;;;2.52;100.00
19210;BME280;9738;51.654;14.238;2023-04-02T04:06:12;100261.06;;;2.56;100.00
19210;BME280;9738;51.654;14.238;2023-04-02T04:08:52;100262.75;;;2.57;100.00
19210;BME280;9738;51.654;14.238;2023-04-02T04:11:32;100264.56;;;2.56;100.00
19210;BME280;9738;51.654;14.238;2023-04-02T04:14:16;100272.25;;;2.59;100.00
19210;BME280;9738;51.654;14.238;2023-04-02T04:19:45;100290.69;;;2.59;100.00
19210;BME280;9738;51.654;14.238;2023-04-02T04:22:18;100291.66;;;2.58;100.00
19210;BME280;9738;51.654;14.238;2023-04-02T04:24:56;100302.19;;;2.58;100.00
19210;BME280;9738;51.654;14.238;2023-04-02T04:27:44;100315.25;;;2.60;100.00
19210;BME280;9738;51.654;14.238;2023-04-02T04:30:18;100310.75;;;2.62;100.00
19210;BME280;9738;51.654;14.238;2023-04-02T04:32:53;100314.22;;;2.62;100.00
19210;BME280;9738;51.654;14.238;2023-04-02T04:35:28;100323.81;;;2.63;100.00
19210;BME280;9738;51.654;14.238;2023-04-02T04:37:59;100331.72;;;2.63;100.00
19210;BME280;9738;51.654;14.238;2023-04-02T04:40:33;100330.47;;;2.69;100.00
19210;BME280;9738;51.654;14.238;2023-04-02T04:43:08;100340.91;;;2.70;100.00
19210;BME280;9738;51.654;14.238;2023-04-02T04:45:40;100346.19;;;2.70;100.00
19210;BME280;9738;51.654;14.238;2023-04-02T04:48:18;100349.66;;;2.71;100.00
19210;BME280;9738;51.654;14.238;2023-04-02T04:50:53;100353.81;;;2.75;100.00
19210;BME280;9738;51.654;14.238;2023-04-02T04:53:23;100362.56;;;2.76;100.00
19210;BME280;9738;51.654;14.238;2023-04-02T04:55:52;100364.25;;;2.77;100.00
19210;BME280;9738;51.654;14.238;2023-04-02T05:01:03;100374.78;;;2.77;100.00
19210;BME280;9738;51.654;14.238;2023-04-02T05:03:37;100373.72;;;2.79;100.00
19210;BME280;9738;51.654;14.238;2023-04-02T05:08:46;100387.25;;;2.75;100.00
19210;BME280;9738;51.654;14.238;2023-04-02T05:11:22;100390.84;;;2.74;100.00
19210;BME280;9738;51.654;14.238;2023-04-02T05:13:57;100393.47;;;2.74;100.00
19210;BME280;9738;51.654;14.238;2023-04-02T05:16:42;100404.53;;;2.79;100.00
19210;BME280;9738;51.654;14.238;2023-04-02T05:19:15;100408.84;;;2.80;100.00
19210;BME280;9738;51.654;14.238;2023-04-02T05:22:11;100414.25;;;2.78;100.00
19210;BME280;9738;51.654;14.238;2023-04-02T05:24:46;100418.88;;;2.75;100.00
19210;BME280;9738;51.654;14.238;2023-04-02T05:27:26;100424.59;;;2.81;100.00
19210;BME280;9738;51.654;14.238;2023-04-02T05:29:59;100427.97;;;2.83;100.00
19210;BME280;9738;51.654;14.238;2023-04-02T05:32:31;100419.94;;;2.85;100.00
19210;BME280;9738;51.654;14.238;2023-04-02T05:35:00;100432.41;;;2.83;100.00
19210;BME280;9738;51.654;14.238;2023-04-02T05:37:30;100433.47;;;2.80;100.00
19210;BME280;9738;51.654;14.238;2023-04-02T05:40:04;100441.28;;;2.82;100.00
19210;BME280;9738;51.654;14.238;2023-04-02T05:42:37;100441.38;;;2.80;100.00
19210;BME280;9738;51.654;14.238;2023-04-02T05:47:39;100449.19;;;2.82;100.00
19210;BME280;9738;51.654;14.238;2023-04-02T05:52:49;100457.19;;;2.80;100.00
19210;BME280;9738;51.654;14.238;2023-04-02T05:57:49;100463.22;;;2.82;100.00
19210;BME280;9738;51.654;14.238;2023-04-02T06:03:16;100479.66;;;2.86;100.00
19210;BME280;9738;51.654;14.238;2023-04-02T06:05:50;100485.44;;;2.78;100.00
19210;BME280;9738;51.654;14.238;2023-04-02T06:08:21;100487.25;;;2.78;100.00
19210;BME280;9738;51.654;14.238;2023-04-02T06:11:10;100493.25;;;2.80;100.00
19210;BME280;9738;51.654;14.238;2023-04-02T06:13:38;100499.69;;;2.76;100.00
19210;BME280;9738;51.654;14.238;2023-04-02T06:16:05;100502.13;;;2.79;100.00
19210;BME280;9738;51.654;14.238;2023-04-02T06:18:33;100502.03;;;2.80;100.00
19210;BME280;9738;51.654;14.238;2023-04-02T06:21:01;100504.75;;;2.79;100.00
19210;BME280;9738;51.654;14.238;2023-04-02T06:23:36;100520.78;;;2.76;100.00
19210;BME280;9738;51.654;14.238;2023-04-02T06:26:21;100522.94;;;2.83;100.00
19210;BME280;9738;51.654;14.238;2023-04-02T06:29:03;100527.16;;;2.86;100.00
19210;BME280;9738;51.654;14.238;2023-04-02T06:34:03;100538.56;;;2.86;100.00
19210;BME280;9738;51.654;14.238;2023-04-02T06:36:32;100540.03;;;2.90;100.00
19210;BME280;9738;51.654;14.238;2023-04-02T06:39:02;100548.06;;;2.89;100.00
19210;BME280;9738;51.654;14.238;2023-04-02T06:41:30;100554.06;;;2.91;100.00
19210;BME280;9738;51.654;14.238;2023-04-02T06:44:03;100555.03;;;2.90;100.00
19210;BME280;9738;51.654;14.238;2023-04-02T06:46:34;100570.22;;;2.86;100.00
19210;BME280;9738;51.654;14.238;2023-04-02T06:49:10;100573.50;;;2.90;100.00
19210;BME280;9738;51.654;14.238;2023-04-02T06:51:39;100577.09;;;2.89;100.00
19210;BME280;9738;51.654;14.238;2023-04-02T06:54:12;100587.75;;;2.87;100.00
19210;BME280;9738;51.654;14.238;2023-04-02T06:56:42;100587.91;;;2.84;100.00
19210;BME280;9738;51.654;14.238;2023-04-02T06:59:09;100588.97;;;2.82;100.00
19210;BME280;9738;51.654;14.238;2023-04-02T07:01:42;100595.19;;;2.81;100.00
19210;BME280;9738;51.654;14.238;2023-04-02T07:04:10;100600.56;;;2.79;100.00
19210;BME280;9738;51.654;14.238;2023-04-02T07:06:36;100604.13;;;2.78;100.00
19210;BME280;9738;51.654;14.238;2023-04-02T07:09:02;100594.44;;;2.79;100.00
19210;BME280;9738;51.654;14.238;2023-04-02T07:11:29;100598.97;;;2.77;100.00
19210;BME280;9738;51.654;14.238;2023-04-02T07:13:55;100608.38;;;2.81;100.00
19210;BME280;9738;51.654;14.238;2023-04-02T07:16:22;100615.16;;;2.85;100.00
19210;BME280;9738;51.654;14.238;2023-04-02T07:18:53;100615.16;;;2.85;100.00
19210;BME280;9738;51.654;14.238;2023-04-02T07:21:27;100613.47;;;2.84;100.00
19210;BME280;9738;51.654;14.238;2023-04-02T07:23:54;100621.25;;;2.85;100.00
19210;BME280;9738;51.654;14.238;2023-04-02T07:26:23;100625.50;;;2.88;100.00
19210;BME280;9738;51.654;14.238;2023-04-02T07:28:54;100634.16;;;2.90;100.00
19210;BME280;9738;51.654;14.238;2023-04-02T07:31:26;100631.53;;;2.90;100.00
19210;BME280;9738;51.654;14.238;2023-04-02T07:33:57;100637.16;;;2.98;100.00
19210;BME280;9738;51.654;14.238;2023-04-02T07:36:26;100638.66;;;3.02;100.00
19210;BME280;9738;51.654;14.238;2023-04-02T07:38:52;100646.59;;;3.02;100.00
19210;BME280;9738;51.654;14.238;2023-04-02T07:41:19;100649.31;;;3.01;100.00
19210;BME280;9738;51.654;14.238;2023-04-02T07:43:46;100659.56;;;3.05;100.00
19210;BME280;9738;51.654;14.238;2023-04-02T07:46:13;100657.88;;;3.04;100.00
19210;BME280;9738;51.654;14.238;2023-04-02T07:48:42;100653.44;;;3.05;100.00
19210;BME280;9738;51.654;14.238;2023-04-02T07:51:20;100658.72;;;3.05;100.00
19210;BME280;9738;51.654;14.238;2023-04-02T07:53:47;100661.28;;;3.06;100.00
19210;BME280;9738;51.654;14.238;2023-04-02T07:56:16;100669.00;;;3.09;100.00
19210;BME280;9738;51.654;14.238;2023-04-02T07:58:43;100673.31;;;3.10;100.00
19210;BME280;9738;51.654;14.238;2023-04-02T08:01:20;100674.94;;;3.13;100.00
19210;BME280;9738;51.654;14.238;2023-04-02T08:03:49;100678.22;;;3.16;100.00
19210;BME280;9738;51.654;14.238;2023-04-02T08:06:15;100683.31;;;3.19;100.00
19210;BME280;9738;51.654;14.238;2023-04-02T08:08:41;100679.72;;;3.20;100.00
19210;BME280;9738;51.654;14.238;2023-04-02T08:11:07;100694.94;;;3.30;100.00
19210;BME280;9738;51.654;14.238;2023-04-02T08:13:34;100696.25;;;3.37;100.00
19210;BME280;9738;51.654;14.238;2023-04-02T08:16:00;100689.66;;;3.44;100.00
19210;BME280;9738;51.654;14.238;2023-04-02T08:18:27;100692.91;;;3.47;100.00
19210;BME280;9738;51.654;14.238;2023-04-02T08:20:54;100705.00;;;3.51;100.00
19210;BME280;9738;51.654;14.238;2023-04-02T08:23:20;100699.16;;;3.46;100.00
19210;BME280;9738;51.654;14.238;2023-04-02T08:25:47;100703.38;;;3.49;100.00
19210;BME280;9738;51.654;14.238;2023-04-02T08:28:14;100708.06;;;3.58;100.00
19210;BME280;9738;51.654;14.238;2023-04-02T08:30:40;100712.19;;;3.62;100.00
19210;BME280;9738;51.654;14.238;2023-04-02T08:33:06;100720.66;;;3.67;100.00
19210;BME280;9738;51.654;14.238;2023-04-02T08:35:33;100728.09;;;3.75;100.00
19210;BME280;9738;51.654;14.238;2023-04-02T08:37:59;100724.59;;;3.74;100.00
19210;BME280;9738;51.654;14.238;2023-04-02T08:40:36;100734.88;;;3.79;100.00
19210;BME280;9738;51.654;14.238;2023-04-02T08:43:20;100737.31;;;3.82;100.00
19210;BME280;9738;51.654;14.238;2023-04-02T08:46:08;100745.03;;;3.85;100.00
19210;BME280;9738;51.654;14.238;2023-04-02T08:48:39;100745.03;;;3.85;100.00
19210;BME280;9738;51.654;14.238;2023-04-02T08:51:20;100744.75;;;3.90;100.00
19210;BME280;9738;51.654;14.238;2023-04-02T08:53:47;100757.00;;;3.91;100.00
19210;BME280;9738;51.654;14.238;2023-04-02T08:56:19;100747.81;;;3.96;100.00
19210;BME280;9738;51.654;14.238;2023-04-02T08:58:54;100757.34;;;3.99;100.00
19210;BME280;9738;51.654;14.238;2023-04-02T09:04:19;100761.16;;;3.95;100.00
19210;BME280;9738;51.654;14.238;2023-04-02T09:06:46;100768.13;;;3.96;100.00
19210;BME280;9738;51.654;14.238;2023-04-02T09:09:15;100763.28;;;4.02;100.00
19210;BME280;9738;51.654;14.238;2023-04-02T09:11:54;100765.59;;;4.07;100.00
19210;BME280;9738;51.654;14.238;2023-04-02T09:17:01;100781.38;;;4.09;100.00
19210;BME280;9738;51.654;14.238;2023-04-02T09:19:35;100777.56;;;4.13;100.00
19210;BME280;9738;51.654;14.238;2023-04-02T09:22:18;100788.78;;;4.16;100.00
19210;BME280;9738;51.654;14.238;2023-04-02T09:24:53;100794.41;;;4.24;100.00
19210;BME280;9738;51.654;14.238;2023-04-02T09:27:33;100794.22;;;4.27;100.00
19210;BME280;9738;51.654;14.238;2023-04-02T09:33:01;100812.31;;;4.33;100.00
19210;BME280;9738;51.654;14.238;2023-04-02T09:43:21;100821.78;;;4.63;100.00
19210;BME280;9738;51.654;14.238;2023-04-02T09:46:01;100830.66;;;4.62;100.00
19210;BME280;9738;51.654;14.238;2023-04-02T09:48:34;100836.06;;;4.60;100.00
19210;BME280;9738;51.654;14.238;2023-04-02T09:51:30;100836.91;;;4.61;100.00
19210;BME280;9738;51.654;14.238;2023-04-02T09:56:38;100846.94;;;4.56;100.00
19210;BME280;9738;51.654;14.238;2023-04-02T09:59:18;100853.53;;;4.63;100.00
19210;BME280;9738;51.654;14.238;2023-04-02T10:01:58;100862.81;;;4.56;100.00
19210;BME280;9738;51.654;14.238;2023-04-02T10:09:58;100862.09;;;4.54;100.00
19210;BME280;9738;51.654;14.238;2023-04-02T10:12:25;100866.75;;;4.63;100.00
19210;BME280;9738;51.654;14.238;2023-04-02T10:14:55;100865.03;;;4.49;100.00
19210;BME280;9738;51.654;14.238;2023-04-02T10:17:31;100870.03;;;4.54;100.00
19210;BME280;9738;51.654;14.238;2023-04-02T10:20:18;100873.41;;;4.56;100.00
19210;BME280;9738;51.654;14.238;2023-04-02T10:22:46;100873.00;;;4.62;100.00
19210;BME280;9738;51.654;14.238;2023-04-02T10:25:14;100870.69;;;4.70;100.00
19210;BME280;9738;51.654;14.238;2023-04-02T10:28:17;100876.91;;;4.69;100.00
19210;BME280;9738;51.654;14.238;2023-04-02T10:31:01;100881.19;;;4.72;100.00
19210;BME280;9738;51.654;14.238;2023-04-02T10:33:33;100876.41;;;4.77;100.00
19210;BME280;9738;51.654;14.238;2023-04-02T10:39:12;100888.91;;;4.87;100.00
19210;BME280;9738;51.654;14.238;2023-04-02T10:41:49;100889.03;;;4.86;100.00
19210;BME280;9738;51.654;14.238;2023-04-02T10:44:27;100894.09;;;4.89;100.00
19210;BME280;9738;51.654;14.238;2023-04-02T10:47:21;100892.84;;;4.95;100.00
19210;BME280;9738;51.654;14.238;2023-04-02T10:52:38;100909.50;;;4.97;100.00
19210;BME280;9738;51.654;14.238;2023-04-02T10:55:17;100918.03;;;4.87;100.00
19210;BME280;9738;51.654;14.238;2023-04-02T10:57:45;100917.84;;;4.91;100.00
19210;BME280;9738;51.654;14.238;2023-04-02T11:05:18;100939.50;;;4.83;100.00
19210;BME280;9738;51.654;14.238;2023-04-02T11:07:53;100940.97;;;4.74;100.00
19210;BME280;9738;51.654;14.238;2023-04-02T11:10:21;100940.00;;;4.75;100.00
19210;BME280;9738;51.654;14.238;2023-04-02T11:12:56;100946.72;;;4.81;100.00
19210;BME280;9738;51.654;14.238;2023-04-02T11:15:25;100940.38;;;4.96;100.00
19210;BME280;9738;51.654;14.238;2023-04-02T11:17:51;100949.84;;;5.13;100.00
19210;BME280;9738;51.654;14.238;2023-04-02T11:20:40;100954.31;;;5.25;100.00
19210;BME280;9738;51.654;14.238;2023-04-02T11:23:12;100955.47;;;5.34;100.00
19210;BME280;9738;51.654;14.238;2023-04-02T11:25:40;100952.38;;;5.27;100.00
19210;BME280;9738;51.654;14.238;2023-04-02T11:30:47;100972.84;;;5.38;100.00
19210;BME280;9738;51.654;14.238;2023-04-02T11:35:49;100973.56;;;5.27;100.00
19210;BME280;9738;51.654;14.238;2023-04-02T11:40:49;100978.47;;;5.33;100.00
19210;BME280;9738;51.654;14.238;2023-04-02T11:48:41;100985.81;;;5.55;100.00
19210;BME280;9738;51.654;14.238;2023-04-02T11:53:46;100996.16;;;5.58;100.00
19210;BME280;9738;51.654;14.238;2023-04-02T11:59:03;101011.66;;;5.52;100.00
19210;BME280;9738;51.654;14.238;2023-04-02T12:07:03;101024.28;;;5.48;100.00
19210;BME280;9738;51.654;14.238;2023-04-02T12:09:46;101030.06;;;5.40;100.00
19210;BME280;9738;51.654;14.238;2023-04-02T12:12:23;101029.88;;;5.43;100.00
19210;BME280;9738;51.654;14.238;2023-04-02T12:14:52;101036.00;;;5.44;100.00
19210;BME280;9738;51.654;14.238;2023-04-02T12:17:37;101041.19;;;5.46;100.00
19210;BME280;9738;51.654;14.238;2023-04-02T12:22:45;101050.19;;;5.30;100.00
19210;BME280;9738;51.654;14.238;2023-04-02T12:25:32;101051.22;;;5.28;100.00
19210;BME280;9738;51.654;14.238;2023-04-02T12:30:35;101048.34;;;5.18;100.00
19210;BME280;9738;51.654;14.238;2023-04-02T12:35:58;101055.19;;;5.08;100.00
19210;BME280;9738;51.654;14.238;2023-04-02T12:38:27;101056.38;;;5.04;100.00
19210;BME280;9738;51.654;14.238;2023-04-02T12:40:55;101057.31;;;5.03;100.00
19210;BME280;9738;51.654;14.238;2023-04-02T12:43:29;101053.50;;;5.07;100.00
19210;BME280;9738;51.654;14.238;2023-04-02T12:45:58;101060.00;;;5.15;100.00
19210;BME280;9738;51.654;14.238;2023-04-02T12:48:25;101069.53;;;5.18;100.00
19210;BME280;9738;51.654;14.238;2023-04-02T12:50:52;101062.03;;;5.25;100.00
19210;BME280;9738;51.654;14.238;2023-04-02T12:53:27;101065.88;;;5.33;100.00
19210;BME280;9738;51.654;14.238;2023-04-02T12:55:54;101076.47;;;5.33;100.00
19210;BME280;9738;51.654;14.238;2023-04-02T12:58:34;101066.09;;;5.30;100.00
19210;BME280;9738;51.654;14.238;2023-04-02T13:01:21;101075.94;;;5.28;100.00
19210;BME280;9738;51.654;14.238;2023-04-02T13:04:09;101076.88;;;5.27;100.00
19210;BME280;9738;51.654;14.238;2023-04-02T13:06:39;101078.19;;;5.34;100.00
19210;BME280;9738;51.654;14.238;2023-04-02T13:09:27;101091.44;;;5.34;100.00
19210;BME280;9738;51.654;14.238;2023-04-02T13:11:53;101086.88;;;5.36;100.00
19210;BME280;9738;51.654;14.238;2023-04-02T13:14:20;101088.25;;;5.42;100.00
19210;BME280;9738;51.654;14.238;2023-04-02T13:16:48;101088.00;;;5.32;100.00
19210;BME280;9738;51.654;14.238;2023-04-02T13:19:30;101101.38;;;5.31;100.00
19210;BME280;9738;51.654;14.238;2023-04-02T13:21:59;101103.91;;;5.32;100.00
19210;BME280;9738;51.654;14.238;2023-04-02T13:24:30;101105.28;;;5.38;100.00
19210;BME280;9738;51.654;14.238;2023-04-02T13:26:59;101098.94;;;5.40;100.00
19210;BME280;9738;51.654;14.238;2023-04-02T13:29:30;101102.47;;;5.41;100.00
19210;BME280;9738;51.654;14.238;2023-04-02T13:31:59;101108.06;;;5.36;100.00
19210;BME280;9738;51.654;14.238;2023-04-02T13:34:26;101109.63;;;5.39;100.00
19210;BME280;9738;51.654;14.238;2023-04-02T13:36:52;101102.75;;;5.36;100.00
19210;BME280;9738;51.654;14.238;2023-04-02T13:39:19;101114.81;;;5.40;100.00
19210;BME280;9738;51.654;14.238;2023-04-02T13:44:23;101114.09;;;5.38;100.00
19210;BME280;9738;51.654;14.238;2023-04-02T13:46:50;101114.19;;;5.37;100.00
19210;BME280;9738;51.654;14.238;2023-04-02T13:49:17;101113.13;;;5.39;100.00
19210;BME280;9738;51.654;14.238;2023-04-02T13:51:48;101125.13;;;5.45;100.00
19210;BME280;9738;51.654;14.238;2023-04-02T13:54:42;101116.78;;;5.51;100.00
19210;BME280;9738;51.654;14.238;2023-04-02T13:57:09;101123.03;;;5.50;100.00
19210;BME280;9738;51.654;14.238;2023-04-02T13:59:36;101116.78;;;5.51;100.00
19210;BME280;9738;51.654;14.238;2023-04-02T14:02:09;101126.22;;;5.55;100.00
19210;BME280;9738;51.654;14.238;2023-04-02T14:04:40;101121.47;;;5.60;100.00
19210;BME280;9738;51.654;14.238;2023-04-02T14:07:45;101121.56;;;5.59;100.00
19210;BME280;9738;51.654;14.238;2023-04-02T14:10:41;101117.25;;;5.70;100.00
19210;BME280;9738;51.654;14.238;2023-04-02T14:16:17;101122.00;;;5.78;100.00
19210;BME280;9738;51.654;14.238;2023-04-02T14:22:01;101131.09;;;6.01;100.00
19210;BME280;9738;51.654;14.238;2023-04-02T14:30:20;101129.53;;;6.37;100.00
19210;BME280;9738;51.654;14.238;2023-04-02T14:33:06;101133.00;;;6.50;100.00
19210;BME280;9738;51.654;14.238;2023-04-02T14:35:41;101140.84;;;6.52;100.00
19210;BME280;9738;51.654;14.238;2023-04-02T14:40:47;101149.66;;;6.52;100.00
19210;BME280;9738;51.654;14.238;2023-04-02T14:43:23;101139.34;;;6.47;100.00
19210;BME280;9738;51.654;14.238;2023-04-02T14:45:58;101141.41;;;6.44;100.00
19210;BME280;9738;51.654;14.238;2023-04-02T14:51:20;101152.00;;;6.44;100.00
19210;BME280;9738;51.654;14.238;2023-04-02T14:54:06;101149.97;;;6.47;100.00
19210;BME280;9738;51.654;14.238;2023-04-02T14:57:04;101151.16;;;6.43;100.00
19210;BME280;9738;51.654;14.238;2023-04-02T15:00:09;101159.00;;;6.32;100.00
19210;BME280;9738;51.654;14.238;2023-04-02T15:03:02;101156.06;;;6.24;100.00
19210;BME280;9738;51.654;14.238;2023-04-02T15:05:46;101163.78;;;6.27;100.00
19210;BME280;9738;51.654;14.238;2023-04-02T15:08:27;101166.31;;;6.16;100.00
19210;BME280;9738;51.654;14.238;2023-04-02T15:11:15;101162.38;;;6.09;100.00
19210;BME280;9738;51.654;14.238;2023-04-02T15:14:06;101164.72;;;6.01;100.00
19210;BME280;9738;51.654;14.238;2023-04-02T15:16:35;101164.63;;;6.02;100.00
19210;BME280;9738;51.654;14.238;2023-04-02T15:19:03;101169.50;;;5.95;100.00
19210;BME280;9738;51.654;14.238;2023-04-02T15:24:40;101167.69;;;5.96;100.00
19210;BME280;9738;51.654;14.238;2023-04-02T15:27:24;101168.91;;;5.90;100.00
19210;BME280;9738;51.654;14.238;2023-04-02T15:37:58;101170.22;;;5.97;100.00
19210;BME280;9738;51.654;14.238;2023-04-02T15:40:42;101171.72;;;6.02;100.00
19210;BME280;9738;51.654;14.238;2023-04-02T15:43:29;101175.22;;;6.02;100.00
19210;BME280;9738;51.654;14.238;2023-04-02T15:49:34;101177.25;;;6.11;100.00
19210;BME280;9738;51.654;14.238;2023-04-02T15:54:54;101183.00;;;6.18;100.00